This London Heathrow Airport weather forecast is generated by the Met Office Weather Widget

AirNav RadarBox - Metar Weather
  London Heathrow Metar Weather
 

METAR = EGLL 132050Z AUTO 01006KT 330V050 4400 -DZ OVC008 04/03 Q0987 TEMPO 5000 BKN010

STATION........ EGLL
OBSERVED....... Sat Feb 13, 20:50 UTC
NOW............ Sat Feb 13, 21:15 UTC
AGE............ 25 min ago
WIND........... N at 7 mph
VISIBILITY..... 7 miles
CONDITIONS..... light drizzle
CLOUDS......... overcast
TEMP........... 39°F (4°C)
WIND CHILL..... 34°F (1°C)
DEWPT.......... 37°F (3°C)
HUMIDITY....... 93%
BAROMETER...... 987 hPa (29.15 in Hg)

Sat Feb 13 2016, sunrise time : 07:23
Sat Feb 13 2016, sunset time : 17:08